| time (UTC) | temp C | wind direction | speed KPH | gust KPH | rain 1hr cm | rain 24hr cm | rain mn cm | humidity % | barometer mb |
| 20260506180022 | -17 | 333 | 0.0 | 0.0 | 0.00 | 0.00 | 0.00 | 1022.7 | |
| 20260506175519 | -17 | 337 | 0.0 | 0.0 | 0.00 | 0.00 | 0.00 | 1022.4 | |
| 20260506175015 | -17 | 305 | 0.0 | 1.6 | 0.00 | 0.00 | 0.00 | 1022.3 | |
| 20260506174514 | -17 | 210 | 0.0 | 1.6 | 0.00 | 0.00 | 0.00 | 1022.5 | |
| 20260506174010 | -17 | 226 | 3.2 | 3.2 | 0.00 | 0.00 | 0.00 | 1022.6 | |
| 20260506173508 | -17 | 127 | 1.6 | 3.2 | 0.00 | 0.00 | 0.00 | 1022.5 | |
| 20260506173004 | -17 | 12 | 0.0 | 0.0 | 0.00 | 0.00 | 0.00 | 1022.3 | |
| 20260506172502 | -17 | 50 | 0.0 | 0.0 | 0.00 | 0.00 | 0.00 | 1022.4 | |
| 20260506171958 | -17 | 312 | 0.0 | 0.0 | 0.00 | 0.00 | 0.00 | 1022.3 | |
| 20260506171455 | -17 | 235 | 3.2 | 3.2 | 0.00 | 0.00 | 0.00 | 1022.1 | |
| 20260506170947 | -17 | 310 | 1.6 | 1.6 | 0.00 | 0.00 | 0.00 | 1022.2 | |
| 20260506170443 | -17 | 340 | 0.0 | 1.6 | 0.00 | 0.00 | 0.00 | 1022.2 | |
| 20260506165942 | -17 | 312 | 1.6 | 1.6 | 0.00 | 0.00 | 0.00 | 1022.4 | |
| 20260506165441 | -17 | 334 | 0.0 | 0.0 | 0.00 | 0.00 | 0.00 | 1022.3 | |
| 20260506164936 | -17 | 323 | 0.0 | 0.0 | 0.00 | 0.00 | 0.00 | 1022.1 | |
| 20260506164433 | -17 | 320 | 0.0 | 0.0 | 0.00 | 0.00 | 0.00 | 1022.4 | |
| 20260506163925 | -17 | 307 | 1.6 | 1.6 | 0.00 | 0.00 | 0.00 | 1022.4 | |
| 20260506163420 | -17 | 353 | 1.6 | 1.6 | 0.00 | 0.00 | 0.00 | 1022.4 | |
| 20260506162914 | -17 | 317 | 1.6 | 1.6 | 0.00 | 0.00 | 0.00 | 1022.2 | |
| 20260506162413 | -17 | 207 | 4.8 | 4.8 | 0.00 | 0.00 | 0.00 | 1022.3 | |
| 20260506161909 | -17 | 269 | 3.2 | 3.2 | 0.00 | 0.00 | 0.00 | 1022.3 | |
| 20260506161408 | -17 | 227 | 3.2 | 3.2 | 0.00 | 0.00 | 0.00 | 1022.3 | |
| 20260506160859 | -17 | 242 | 3.2 | 3.2 | 0.00 | 0.00 | 0.00 | 1022.5 | |
| 20260506160355 | -17 | 247 | 3.2 | 3.2 | 0.00 | 0.00 | 0.00 | 1022.4 | |
| 20260506155854 | -17 | 261 | 1.6 | 3.2 | 0.00 | 0.00 | 0.00 | 1022.5 | |
| 20260506155350 | -17 | 316 | 0.0 | 1.6 | 0.00 | 0.00 | 0.00 | 1022.3 | |
| 20260506153508 | -17 | 320 | 0.0 | 0.0 | 0.00 | 0.00 | 0.00 | 1022.1 | |
| 20260506153005 | -17 | 313 | 0.0 | 1.6 | 0.00 | 0.00 | 0.00 | 1022.2 | |
| 20260506152502 | -17 | 226 | 3.2 | 3.2 | 0.00 | 0.00 | 0.00 | 1022.3 | |
| 20260506152001 | -17 | 275 | 1.6 | 1.6 | 0.00 | 0.00 | 0.00 | 1022.2 | |
| 20260506151458 | -17 | 298 | 1.6 | 1.6 | 0.00 | 0.00 | 0.00 | 1022.0 | |
| 20260506150955 | -17 | 221 | 3.2 | 3.2 | 0.00 | 0.00 | 0.00 | 1022.2 | |
| 20260506150451 | -17 | 309 | 1.6 | 1.6 | 0.00 | 0.00 | 0.00 | 1022.0 | |
| 20260506145948 | -17 | 301 | 1.6 | 1.6 | 0.00 | 0.00 | 0.00 | 1022.2 | |
| 20260506145444 | -17 | 223 | 3.2 | 3.2 | 0.00 | 0.00 | 0.00 | 1022.1 | |
| 20260506144942 | -17 | 300 | 1.6 | 1.6 | 0.00 | 0.00 | 0.00 | 1022.0 | |
| 20260506144438 | -17 | 312 | 0.0 | 0.0 | 0.00 | 0.00 | 0.00 | 1022.2 | |
| 20260506143937 | -17 | 311 | 1.6 | 1.6 | 0.00 | 0.00 | 0.00 | 1022.3 | |
| 20260506143433 | -17 | 312 | 0.0 | 1.6 | 0.00 | 0.00 | 0.00 | 1022.1 | |
| 20260506142932 | -17 | 325 | 0.0 | 0.0 | 0.00 | 0.00 | 0.00 | 1022.1 | |
| 20260506142429 | -17 | 232 | 1.6 | 3.2 | 0.00 | 0.00 | 0.00 | 1022.0 | |
| 20260506141927 | -17 | 293 | 3.2 | 3.2 | 0.00 | 0.00 | 0.00 | 1021.8 | |
| 20260506141425 | -17 | 294 | 1.6 | 3.2 | 0.00 | 0.00 | 0.00 | 1021.8 | |
| 20260506140923 | -17 | 310 | 0.0 | 1.6 | 0.00 | 0.00 | 0.00 | 1022.0 | |
| 20260506140420 | -17 | 301 | 1.6 | 1.6 | 0.00 | 0.00 | 0.00 | 1021.9 | |
| 20260506135917 | -17 | 314 | 0.0 | 0.0 | 0.00 | 0.00 | 0.00 | 1021.9 | |
| 20260506135414 | -17 | 311 | 1.6 | 1.6 | 0.00 | 0.00 | 0.00 | 1021.9 | |
| 20260506134910 | -17 | 317 | 0.0 | 1.6 | 0.00 | 0.00 | 0.00 | 1021.6 | |
| 20260506134406 | -17 | 318 | 0.0 | 1.6 | 0.00 | 0.00 | 0.00 | 1021.7 | |
| 20260506133903 | -17 | 315 | 0.0 | 0.0 | 0.00 | 0.00 | 0.00 | 1021.5 | |
| 20260506133400 | -17 | 319 | 0.0 | 0.0 | 0.00 | 0.00 | 0.00 | 1021.6 | |
| 20260506132857 | -17 | 319 | 0.0 | 0.0 | 0.00 | 0.00 | 0.00 | 1021.6 | |
| 20260506132354 | -17 | 321 | 0.0 | 1.6 | 0.00 | 0.00 | 0.00 | 1021.4 | |
| 20260506131852 | -17 | 315 | 1.6 | 1.6 | 0.00 | 0.00 | 0.00 | 1021.5 | |
| 20260506131348 | -17 | 317 | 0.0 | 0.0 | 0.00 | 0.00 | 0.00 | 1021.3 | |
| 20260506130845 | -17 | 317 | 1.6 | 1.6 | 0.00 | 0.00 | 0.00 | 1021.5 | |
| 20260506130341 | -17 | 322 | 1.6 | 1.6 | 0.00 | 0.00 | 0.00 | 1021.4 | |
| 20260506125839 | -17 | 333 | 0.0 | 0.0 | 0.00 | 0.00 | 0.00 | 1021.5 | |
| 20260506125338 | -17 | 316 | 0.0 | 1.6 | 0.00 | 0.00 | 0.00 | 1021.4 | |
| 20260506124835 | -17 | 307 | 0.0 | 0.0 | 0.00 | 0.00 | 0.00 | 1021.4 | |
| 20260506124332 | -17 | 330 | 0.0 | 0.0 | 0.00 | 0.00 | 0.00 | 1021.5 | |
| 20260506123830 | -17 | 323 | 0.0 | 0.0 | 0.00 | 0.00 | 0.00 | 1021.4 | |
| 20260506123328 | -17 | 322 | 0.0 | 0.0 | 0.00 | 0.00 | 0.00 | 1021.1 | |
| 20260506122825 | -17 | 322 | 0.0 | 0.0 | 0.00 | 0.00 | 0.00 | 1021.6 | |
| 20260506122322 | -17 | 322 | 0.0 | 1.6 | 0.00 | 0.00 | 0.00 | 1021.1 | |
| 20260506121820 | -17 | 321 | 0.0 | 0.0 | 0.00 | 0.00 | 0.00 | 1021.2 | |
| 20260506121317 | -17 | 317 | 0.0 | 1.6 | 0.00 | 0.00 | 0.00 | 1020.9 | |
| 20260506120814 | -17 | 316 | 0.0 | 0.0 | 0.00 | 0.00 | 0.00 | 1021.1 | |
| 20260506120312 | -17 | 316 | 0.0 | 0.0 | 0.00 | 0.00 | 0.00 | 1021.2 | |
| 20260506115809 | -17 | 315 | 0.0 | 0.0 | 0.00 | 0.00 | 0.00 | 1021.2 | |
| 20260506115307 | -17 | 319 | 0.0 | 1.6 | 0.00 | 0.00 | 0.00 | 1021.2 | |
| 20260506114805 | -17 | 318 | 1.6 | 1.6 | 0.00 | 0.00 | 0.00 | 1021.1 | |
| 20260506114302 | -17 | 328 | 0.0 | 0.0 | 0.00 | 0.00 | 0.00 | 1021.1 | |
| 20260506113801 | -17 | 328 | 0.0 | 0.0 | 0.00 | 0.00 | 0.00 | 1021.1 | |
| 20260506113258 | -17 | 338 | 0.0 | 0.0 | 0.00 | 0.00 | 0.00 | 1020.9 | |
| 20260506112754 | -17 | 338 | 0.0 | 0.0 | 0.00 | 0.00 | 0.00 | 1021.2 | |
| 20260506112252 | -17 | 331 | 0.0 | 0.0 | 0.00 | 0.00 | 0.00 | 1021.1 | |
| 20260506111749 | -17 | 321 | 1.6 | 1.6 | 0.00 | 0.00 | 0.00 | 1021.0 | |
| 20260506111247 | -17 | 340 | 0.0 | 1.6 | 0.00 | 0.00 | 0.00 | 1020.9 | |
| 20260506110743 | -17 | 340 | 0.0 | 0.0 | 0.00 | 0.00 | 0.00 | 1020.8 | |
| 20260506110241 | -17 | 30 | 0.0 | 0.0 | 0.00 | 0.00 | 0.00 | 1020.7 | |
| 20260506105737 | -17 | 49 | 0.0 | 0.0 | 0.00 | 0.00 | 0.00 | 1020.8 | |
| 20260506105235 | -17 | 7 | 0.0 | 1.6 | 0.00 | 0.00 | 0.00 | 1020.6 | |
| 20260506104732 | -17 | 57 | 0.0 | 0.0 | 0.00 | 0.00 | 0.00 | 1020.7 | |
| 20260506104230 | -17 | 35 | 1.6 | 1.6 | 0.00 | 0.00 | 0.00 | 1020.4 | |
| 20260506103727 | -17 | 339 | 0.0 | 0.0 | 0.00 | 0.00 | 0.00 | 1020.7 | |
| 20260506103224 | -17 | 320 | 0.0 | 0.0 | 0.00 | 0.00 | 0.00 | 1020.5 | |
| 20260506102722 | -17 | 319 | 0.0 | 1.6 | 0.00 | 0.00 | 0.00 | 1020.3 | |
| 20260506102220 | -17 | 314 | 0.0 | 0.0 | 0.00 | 0.00 | 0.00 | 1020.4 | |
| 20260506101716 | -17 | 313 | 0.0 | 1.6 | 0.00 | 0.00 | 0.00 | 1020.4 | |
| 20260506101213 | -17 | 304 | 0.0 | 0.0 | 0.00 | 0.00 | 0.00 | 1020.5 | |
| 20260506100711 | -17 | 322 | 1.6 | 1.6 | 0.00 | 0.00 | 0.00 | 1020.5 | |
| 20260506100209 | -17 | 309 | 1.6 | 1.6 | 0.00 | 0.00 | 0.00 | 1020.2 | |
| 20260506095707 | -17 | 294 | 1.6 | 1.6 | 0.00 | 0.00 | 0.00 | 1020.3 | |
| 20260506095203 | -17 | 318 | 1.6 | 1.6 | 0.00 | 0.00 | 0.00 | 1020.4 | |
| 20260506094701 | -17 | 336 | 0.0 | 0.0 | 0.00 | 0.00 | 0.00 | 1020.4 | |
| 20260506094158 | -17 | 336 | 1.6 | 1.6 | 0.00 | 0.00 | 0.00 | 1020.2 | |
| 20260506093657 | -17 | 304 | 1.6 | 1.6 | 0.00 | 0.00 | 0.00 | 1020.3 | |
| 20260506093154 | -17 | 302 | 1.6 | 1.6 | 0.00 | 0.00 | 0.00 | 1020.4 | |
| 20260506092651 | -17 | 325 | 0.0 | 0.0 | 0.00 | 0.00 | 0.00 | 1020.5 | |
| 20260506092149 | -17 | 317 | 1.6 | 1.6 | 0.00 | 0.00 | 0.00 | 1020.3 | |
| 20260506091647 | -17 | 314 | 1.6 | 1.6 | 0.00 | 0.00 | 0.00 | 1020.4 | |
| 20260506091144 | -17 | 317 | 0.0 | 0.0 | 0.00 | 0.00 | 0.00 | 1020.2 | |
| 20260506090641 | -17 | 305 | 1.6 | 1.6 | 0.00 | 0.00 | 0.00 | 1020.2 | |
| 20260506090138 | -17 | 229 | 3.2 | 3.2 | 0.00 | 0.00 | 0.00 | 1020.6 | |
| 20260506085635 | -17 | 230 | 1.6 | 1.6 | 0.00 | 0.00 | 0.00 | 1020.4 | |
| 20260506085131 | -17 | 201 | 4.8 | 4.8 | 0.00 | 0.00 | 0.00 | 1020.4 | |
| 20260506084627 | -17 | 285 | 1.6 | 1.6 | 0.00 | 0.00 | 0.00 | 1020.2 | |
| 20260506084124 | -17 | 300 | 1.6 | 1.6 | 0.00 | 0.00 | 0.00 | 1020.3 | |
| 20260506083621 | -17 | 245 | 3.2 | 3.2 | 0.00 | 0.00 | 0.00 | 1020.6 | |
| 20260506083119 | -17 | 315 | 0.0 | 0.0 | 0.00 | 0.00 | 0.00 | 1020.5 | |
| 20260506082615 | -17 | 251 | 1.6 | 1.6 | 0.00 | 0.00 | 0.00 | 1020.5 | |
| 20260506082111 | -17 | 319 | 0.0 | 1.6 | 0.00 | 0.00 | 0.00 | 1020.4 | |
| 20260506081609 | -17 | 319 | 0.0 | 0.0 | 0.00 | 0.00 | 0.00 | 1020.3 | |
| 20260506081107 | -17 | 319 | 0.0 | 0.0 | 0.00 | 0.00 | 0.00 | 1020.4 | |
| 20260506080604 | -17 | 319 | 0.0 | 0.0 | 0.00 | 0.00 | 0.00 | 1020.4 | |
| 20260506073044 | -17 | 301 | 1.6 | 1.6 | 0.00 | 0.00 | 0.00 | 1020.2 | |
| 20260506072541 | -17 | 312 | 0.0 | 0.0 | 0.00 | 0.00 | 0.00 | 1020.2 | |
| 20260506072039 | -17 | 312 | 0.0 | 0.0 | 0.00 | 0.00 | 0.00 | 1020.1 | |
| 20260506071537 | -17 | 312 | 0.0 | 1.6 | 0.00 | 0.00 | 0.00 | 1020.0 | |
| 20260506071034 | -17 | 313 | 0.0 | 0.0 | 0.00 | 0.00 | 0.00 | 1020.0 | |
| 20260506070531 | -17 | 312 | 0.0 | 1.6 | 0.00 | 0.00 | 0.00 | 1019.9 | |
| 20260506062509 | -17 | 278 | 1.6 | 3.2 | 0.00 | 0.20 | 0.20 | 1019.5 | |
| 20260506062005 | -17 | 257 | 4.8 | 8.0 | 0.00 | 0.20 | 0.20 | 1019.5 | |
| 20260506061501 | -17 | 316 | 1.6 | 3.2 | 0.00 | 0.20 | 0.20 | 1019.7 | |
| 20260506060959 | -17 | 301 | 1.6 | 1.6 | 0.00 | 0.20 | 0.20 | 1019.7 | |
| 20260506060457 | -17 | 312 | 0.0 | 0.0 | 0.00 | 0.20 | 0.20 | 1019.4 | |
| 20260506050926 | -17 | 324 | 1.6 | 1.6 | 0.00 | 0.20 | 0.20 | 1018.8 | |
| 20260506050424 | -17 | 275 | 3.2 | 3.2 | 0.00 | 0.20 | 0.20 | 1018.8 | |
| 20260506044914 | -17 | 351 | 0.0 | 0.0 | 0.00 | 0.20 | 0.20 | 1018.9 | |
| 20260506044412 | -17 | 351 | 0.0 | 0.0 | 0.00 | 0.20 | 0.20 | 1018.6 | |
| 20260506043909 | -17 | 328 | 0.0 | 0.0 | 0.00 | 0.20 | 0.20 | 1018.7 | |
| 20260506043406 | -17 | 224 | 8.0 | 8.0 | 0.00 | 0.20 | 0.20 | 1018.7 | |
| 20260506042904 | -17 | 320 | 1.6 | 1.6 | 0.00 | 0.20 | 0.20 | 1018.4 | |
| 20260506042403 | -17 | 355 | 0.0 | 0.0 | 0.00 | 0.20 | 0.20 | 1018.4 | |
| 20260506041901 | -17 | 323 | 0.0 | 1.6 | 0.00 | 0.20 | 0.20 | 1018.2 | |
| 20260506041358 | -17 | 312 | 0.0 | 1.6 | 0.00 | 0.20 | 0.20 | 1018.2 | |
| 20260506040855 | -17 | 306 | 1.6 | 3.2 | 0.00 | 0.20 | 0.20 | 1017.9 | |
| 20260506040353 | -17 | 305 | 0.0 | 0.0 | 0.00 | 0.20 | 0.20 | 1018.0 | |
| 20260506035848 | -17 | 306 | 1.6 | 1.6 | 0.00 | 0.20 | 0.20 | 1018.0 | |
| 20260506035346 | -17 | 237 | 1.6 | 1.6 | 0.00 | 0.20 | 0.20 | 1018.2 | |
| 20260506034843 | -17 | 314 | 0.0 | 1.6 | 0.00 | 0.20 | 0.20 | 1018.0 | |
| 20260506034340 | -17 | 313 | 0.0 | 0.0 | 0.00 | 0.20 | 0.20 | 1018.2 | |
| 20260506033837 | -17 | 313 | 0.0 | 0.0 | 0.00 | 0.20 | 0.20 | 1018.0 | |
| 20260506033334 | -17 | 311 | 1.6 | 1.6 | 0.00 | 0.20 | 0.20 | 1018.1 | |
| 20260506032831 | -17 | 316 | 0.0 | 1.6 | 0.00 | 0.20 | 0.20 | 1018.0 | |
| 20260506032328 | -17 | 278 | 1.6 | 1.6 | 0.00 | 0.20 | 0.20 | 1017.8 | |
| 20260506031825 | -17 | 326 | 0.0 | 0.0 | 0.00 | 0.20 | 0.20 | 1017.6 | |
| 20260506031322 | -17 | 326 | 0.0 | 0.0 | 0.00 | 0.20 | 0.20 | 1017.7 | |
| 20260506030820 | -17 | 45 | 1.6 | 1.6 | 0.00 | 0.20 | 0.20 | 1017.3 | |
| 20260506030318 | -17 | 283 | 1.6 | 3.2 | 0.00 | 0.20 | 0.20 | 1017.6 | |
| 20260506025814 | -17 | 208 | 1.6 | 1.6 | 0.00 | 0.20 | 0.20 | 1017.4 | |
| 20260506025311 | -17 | 237 | 3.2 | 3.2 | 0.00 | 0.20 | 0.20 | 1017.4 | |
| 20260506024808 | -17 | 294 | 1.6 | 3.2 | 0.00 | 0.20 | 0.20 | 1017.6 | |
| 20260506024304 | -17 | 356 | 0.0 | 0.0 | 0.00 | 0.20 | 0.20 | 1017.4 | |
| 20260506023800 | -17 | 353 | 1.6 | 1.6 | 0.00 | 0.20 | 0.20 | 1017.2 | |
| 20260506023258 | -17 | 342 | 0.0 | 1.6 | 0.00 | 0.20 | 0.20 | 1017.2 | |
| 20260506022754 | -17 | 323 | 1.6 | 1.6 | 0.00 | 0.20 | 0.20 | 1016.8 | |
| 20260506022252 | -17 | 334 | 0.0 | 1.6 | 0.00 | 0.20 | 0.20 | 1017.1 | |
| 20260506021750 | -17 | 26 | 0.0 | 0.0 | 0.00 | 0.20 | 0.20 | 1017.1 | |
| 20260506021247 | -17 | 260 | 3.2 | 3.2 | 0.00 | 0.20 | 0.20 | 1016.9 | |
| 20260506020743 | -17 | 239 | 1.6 | 1.6 | 0.00 | 0.20 | 0.20 | 1017.0 | |
| 20260506020241 | -17 | 359 | 1.6 | 1.6 | 0.00 | 0.20 | 0.20 | 1017.0 | |
| 20260506015738 | -17 | 244 | 4.8 | 8.0 | 0.00 | 0.20 | 0.20 | 1016.8 | |
| 20260506015236 | -17 | 195 | 0.0 | 1.6 | 0.00 | 0.20 | 0.20 | 1017.0 | |
| 20260506014733 | -17 | 289 | 1.6 | 1.6 | 0.00 | 0.20 | 0.20 | 1016.9 | |
| 20260506014229 | -17 | 306 | 1.6 | 3.2 | 0.00 | 0.20 | 0.20 | 1017.1 | |
| 20260506013726 | -17 | 319 | 3.2 | 3.2 | 0.00 | 0.20 | 0.20 | 1016.9 | |
| 20260506013223 | -17 | 233 | 3.2 | 3.2 | 0.00 | 0.20 | 0.20 | 1016.5 | |
| 20260506012719 | -17 | 225 | 0.0 | 1.6 | 0.00 | 0.20 | 0.20 | 1016.7 | |
| 20260506012217 | -17 | 24 | 0.0 | 0.0 | 0.00 | 0.20 | 0.20 | 1016.9 | |
| 20260506011714 | -17 | 272 | 3.2 | 3.2 | 0.00 | 0.20 | 0.20 | 1017.1 | |
| 20260506011210 | -17 | 217 | 3.2 | 3.2 | 0.00 | 0.20 | 0.20 | 1016.9 | |
| 20260506010709 | -17 | 37 | 1.6 | 3.2 | 0.00 | 0.20 | 0.20 | 1016.8 | |
| 20260506010206 | -17 | 357 | 0.0 | 0.0 | 0.00 | 0.20 | 0.20 | 1016.5 | |
| 20260506005703 | -17 | 192 | 1.6 | 1.6 | 0.00 | 0.20 | 0.20 | 1017.0 | |
| 20260506005200 | -17 | 247 | 3.2 | 3.2 | 0.00 | 0.20 | 0.20 | 1016.5 | |
| 20260506004655 | -17 | 190 | 3.2 | 4.8 | 0.00 | 0.20 | 0.20 | 1016.9 | |
| 20260506004153 | -17 | 28 | 0.0 | 0.0 | 0.00 | 0.20 | 0.20 | 1016.7 | |
| 20260506003649 | -17 | 38 | 1.6 | 3.2 | 0.00 | 0.20 | 0.20 | 1016.3 | |
| 20260506003146 | -17 | 219 | 1.6 | 1.6 | 0.00 | 0.20 | 0.20 | 1016.5 | |
| 20260506002641 | -17 | 13 | 0.0 | 0.0 | 0.00 | 0.20 | 0.20 | 1016.5 | |
| 20260506002138 | -17 | 50 | 1.6 | 1.6 | 0.00 | 0.20 | 0.20 | 1016.2 | |
| 20260506001633 | -17 | 31 | 0.0 | 0.0 | 0.00 | 0.20 | 0.20 | 1016.3 | |
| 20260506001131 | -17 | 10 | 0.0 | 0.0 | 0.00 | 0.20 | 0.20 | 1016.4 | |
| 20260506000628 | -17 | 315 | 1.6 | 1.6 | 0.00 | 0.20 | 0.20 | 1016.4 | |
| 20260506000125 | -17 | 59 | 3.2 | 3.2 | 0.00 | 0.20 | 0.20 | 1016.4 | |
| 20260505235623 | -17 | 62 | 0.0 | 0.0 | 0.00 | 0.20 | 0.20 | 1016.4 | |
| 20260505235120 | -17 | 344 | 0.0 | 0.0 | 0.00 | 0.20 | 0.20 | 1016.3 | |
| 20260505234617 | -17 | 231 | 3.2 | 3.2 | 0.00 | 0.20 | 0.20 | 1016.3 | |
| 20260505234114 | -17 | 218 | 3.2 | 3.2 | 0.00 | 0.20 | 0.20 | 1016.4 | |
| 20260505233611 | -17 | 240 | 3.2 | 3.2 | 0.00 | 0.20 | 0.20 | 1016.4 | |
| 20260505233109 | -17 | 271 | 1.6 | 3.2 | 0.00 | 0.20 | 0.20 | 1016.3 | |
| 20260505232606 | -17 | 307 | 0.0 | 1.6 | 0.00 | 0.20 | 0.20 | 1016.3 | |
| 20260505232104 | -17 | 300 | 1.6 | 1.6 | 0.00 | 0.20 | 0.20 | 1016.4 | |
| 20260505231600 | -17 | 255 | 3.2 | 3.2 | 0.00 | 0.20 | 0.20 | 1016.2 | |
| 20260505231059 | -17 | 227 | 1.6 | 1.6 | 0.00 | 0.20 | 0.20 | 1016.4 | |
| 20260505230556 | -17 | 235 | 0.0 | 0.0 | 0.00 | 0.20 | 0.20 | 1016.7 | |
| 20260505230052 | -17 | 212 | 3.2 | 4.8 | 0.00 | 0.20 | 0.20 | 1016.7 | |
| 20260505225549 | -17 | 227 | 3.2 | 3.2 | 0.00 | 0.20 | 0.20 | 1016.4 | |
| 20260505225045 | -17 | 259 | 4.8 | 8.0 | 0.00 | 0.20 | 0.20 | 1016.4 | |
| 20260505224543 | -17 | 302 | 0.0 | 1.6 | 0.00 | 0.20 | 0.20 | 1016.2 | |
| 20260505224040 | -17 | 85 | 1.6 | 3.2 | 0.00 | 0.20 | 0.20 | 1016.5 | |
| 20260505223537 | -17 | 79 | 3.2 | 4.8 | 0.00 | 0.20 | 0.20 | 1016.4 | |
| 20260505223033 | -17 | 41 | 0.0 | 0.0 | 0.00 | 0.20 | 0.20 | 1016.7 | |
| 20260505222529 | -17 | 41 | 0.0 | 0.0 | 0.00 | 0.20 | 0.20 | 1016.5 | |
| 20260505222025 | -17 | 36 | 0.0 | 0.0 | 0.00 | 0.20 | 0.20 | 1016.8 | |
| 20260505221523 | -17 | 317 | 0.0 | 1.6 | 0.00 | 0.20 | 0.20 | 1016.9 | |
| 20260505221019 | -17 | 2 | 1.6 | 1.6 | 0.00 | 0.20 | 0.20 | 1016.7 | |
| 20260505220517 | -17 | 5 | 1.6 | 3.2 | 0.00 | 0.20 | 0.20 | 1016.8 | |
| 20260505220015 | -17 | 356 | 1.6 | 1.6 | 0.00 | 0.20 | 0.20 | 1016.7 | |
| 20260505215512 | -17 | 336 | 0.0 | 0.0 | 0.00 | 0.20 | 0.20 | 1016.8 | |
| 20260505215010 | -17 | 212 | 0.0 | 1.6 | 0.00 | 0.20 | 0.20 | 1017.0 | |
| 20260505214508 | -17 | 211 | 3.2 | 3.2 | 0.00 | 0.20 | 0.20 | 1017.0 | |
| 20260505214004 | -17 | 270 | 1.6 | 1.6 | 0.00 | 0.20 | 0.20 | 1017.2 | |
| 20260505213502 | -17 | 195 | 6.4 | 8.0 | 0.00 | 0.20 | 0.20 | 1016.8 | |
| 20260505212958 | -17 | 315 | 1.6 | 3.2 | 0.00 | 0.20 | 0.20 | 1017.1 | |
| 20260505212455 | -17 | 81 | 4.8 | 4.8 | 0.00 | 0.20 | 0.20 | 1017.1 | |
| 20260505211951 | -17 | 245 | 1.6 | 1.6 | 0.00 | 0.20 | 0.20 | 1017.0 | |
| 20260505211449 | -17 | 278 | 0.0 | 1.6 | 0.00 | 0.20 | 0.20 | 1017.3 | |
| 20260505210945 | -17 | 241 | 4.8 | 4.8 | 0.00 | 0.20 | 0.20 | 1017.1 | |
| 20260505210442 | -17 | 231 | 4.8 | 8.0 | 0.00 | 0.20 | 0.20 | 1017.1 | |
| 20260505205939 | -17 | 286 | 0.0 | 1.6 | 0.00 | 0.20 | 0.20 | 1017.3 | |
| 20260505205438 | -17 | 203 | 4.8 | 8.0 | 0.00 | 0.20 | 0.20 | 1017.1 | |
| 20260505204934 | -17 | 293 | 1.6 | 1.6 | 0.00 | 0.20 | 0.20 | 1017.1 | |
| 20260505204432 | -17 | 241 | 3.2 | 3.2 | 0.00 | 0.20 | 0.20 | 1017.2 | |
| 20260505203929 | -17 | 256 | 4.8 | 4.8 | 0.00 | 0.20 | 0.20 | 1017.2 | |
| 20260505203425 | -17 | 199 | 3.2 | 3.2 | 0.00 | 0.20 | 0.20 | 1017.2 | |
| 20260505202922 | -17 | 208 | 3.2 | 4.8 | 0.00 | 0.20 | 0.20 | 1017.3 | |
| 20260505202418 | -17 | 274 | 1.6 | 3.2 | 0.00 | 0.20 | 0.20 | 1017.2 | |
| 20260505201915 | -17 | 251 | 3.2 | 3.2 | 0.00 | 0.20 | 0.20 | 1017.2 | |
| 20260505201412 | -17 | 253 | 3.2 | 3.2 | 0.00 | 0.20 | 0.20 | 1017.5 | |
| 20260505200910 | -17 | 203 | 1.6 | 3.2 | 0.00 | 0.20 | 0.20 | 1017.5 | |
| 20260505200407 | -17 | 218 | 6.4 | 8.0 | 0.00 | 0.20 | 0.20 | 1017.5 | |
| 20260505195902 | -17 | 261 | 0.0 | 1.6 | 0.00 | 0.20 | 0.20 | 1017.3 | |
| 20260505195400 | -17 | 282 | 1.6 | 1.6 | 0.00 | 0.20 | 0.20 | 1017.2 | |
| 20260505194857 | -17 | 272 | 3.2 | 3.2 | 0.00 | 0.20 | 0.20 | 1017.5 | |
| 20260505194354 | -17 | 201 | 4.8 | 4.8 | 0.00 | 0.20 | 0.20 | 1017.5 | |
| 20260505193849 | -17 | 244 | 0.0 | 0.0 | 0.00 | 0.20 | 0.20 | 1017.4 | |
| 20260505193347 | -17 | 213 | 3.2 | 3.2 | 0.00 | 0.20 | 0.20 | 1017.5 | |
| 20260505192844 | -17 | 302 | 1.6 | 1.6 | 0.00 | 0.20 | 0.20 | 1017.3 | |
| 20260505192343 | -17 | 309 | 0.0 | 1.6 | 0.00 | 0.20 | 0.20 | 1017.6 | |
| 20260505191840 | -17 | 315 | 0.0 | 1.6 | 0.00 | 0.20 | 0.20 | 1017.5 | |
| 20260505191338 | -17 | 279 | 0.0 | 0.0 | 0.00 | 0.20 | 0.20 | 1017.6 | |
| 20260505190835 | -17 | 324 | 1.6 | 1.6 | 0.00 | 0.20 | 0.20 | 1017.7 | |
| 20260505190330 | -17 | 220 | 1.6 | 1.6 | 0.00 | 0.20 | 0.20 | 1017.6 | |
| 20260505185826 | -17 | 227 | 3.2 | 3.2 | 0.00 | 0.20 | 0.20 | 1017.5 | |
| 20260505185322 | -17 | 337 | 1.6 | 1.6 | 0.00 | 0.20 | 0.20 | 1017.4 | |
| 20260505184818 | -17 | 3 | 0.0 | 0.0 | 0.00 | 0.20 | 0.20 | 1017.5 | |
| 20260505184316 | -17 | 4 | 0.0 | 0.0 | 0.00 | 0.20 | 0.20 | 1017.3 | |
| 20260505183813 | -17 | 232 | 3.2 | 3.2 | 0.00 | 0.20 | 0.20 | 1017.3 | |
| 20260505183310 | -17 | 259 | 4.8 | 4.8 | 0.00 | 0.20 | 0.20 | 1017.3 | |
| 20260505182807 | -17 | 325 | 0.0 | 0.0 | 0.00 | 0.20 | 0.20 | 1017.3 | |
| 20260505182305 | -17 | 330 | 1.6 | 1.6 | 0.00 | 0.20 | 0.20 | 1017.4 | |
| 20260505181800 | -17 | 337 | 0.0 | 0.0 | 0.00 | 0.20 | 0.20 | 1017.3 | |
| 20260505181257 | -17 | 322 | 1.6 | 1.6 | 0.00 | 0.20 | 0.20 | 1017.3 | |
| 20260505180754 | -17 | 340 | 0.0 | 1.6 | 0.00 | 0.20 | 0.20 | 1017.3 |